sensor_id;sensor_type;location;lat;lon;timestamp;P1;durP1;ratioP1;P2;durP2;ratioP2
4704;SDS011;2366;51.332;6.610;2022-12-08T00:00:36;21.57;;;13.37;;
4704;SDS011;2366;51.332;6.610;2022-12-08T00:03:02;18.13;;;13.10;;
4704;SDS011;2366;51.332;6.610;2022-12-08T00:05:27;15.77;;;12.10;;
4704;SDS011;2366;51.332;6.610;2022-12-08T00:08:11;14.57;;;12.52;;
4704;SDS011;2366;51.332;6.610;2022-12-08T00:10:55;19.73;;;12.93;;
4704;SDS011;2366;51.332;6.610;2022-12-08T00:13:20;17.33;;;12.87;;
4704;SDS011;2366;51.332;6.610;2022-12-08T00:15:46;18.80;;;13.13;;
4704;SDS011;2366;51.332;6.610;2022-12-08T00:18:11;16.70;;;13.80;;
4704;SDS011;2366;51.332;6.610;2022-12-08T00:20:36;19.67;;;14.90;;
4704;SDS011;2366;51.332;6.610;2022-12-08T00:23:02;18.33;;;14.87;;
4704;SDS011;2366;51.332;6.610;2022-12-08T00:25:28;21.75;;;15.00;;
4704;SDS011;2366;51.332;6.610;2022-12-08T00:27:55;20.83;;;14.93;;
4704;SDS011;2366;51.332;6.610;2022-12-08T00:30:20;21.73;;;13.83;;
4704;SDS011;2366;51.332;6.610;2022-12-08T00:32:45;21.30;;;14.80;;
4704;SDS011;2366;51.332;6.610;2022-12-08T00:35:11;25.50;;;16.03;;
4704;SDS011;2366;51.332;6.610;2022-12-08T00:37:36;20.73;;;14.97;;
4704;SDS011;2366;51.332;6.610;2022-12-08T00:40:01;30.80;;;15.47;;
4704;SDS011;2366;51.332;6.610;2022-12-08T00:42:27;28.23;;;16.90;;
4704;SDS011;2366;51.332;6.610;2022-12-08T00:44:52;24.00;;;16.73;;
4704;SDS011;2366;51.332;6.610;2022-12-08T00:47:18;22.23;;;15.50;;
4704;SDS011;2366;51.332;6.610;2022-12-08T00:49:43;26.33;;;16.03;;
4704;SDS011;2366;51.332;6.610;2022-12-08T00:52:09;22.67;;;17.13;;
4704;SDS011;2366;51.332;6.610;2022-12-08T00:54:36;19.77;;;15.02;;
4704;SDS011;2366;51.332;6.610;2022-12-08T00:57:01;27.60;;;16.73;;
4704;SDS011;2366;51.332;6.610;2022-12-08T00:59:27;21.90;;;15.47;;
4704;SDS011;2366;51.332;6.610;2022-12-08T01:01:52;24.97;;;17.30;;
4704;SDS011;2366;51.332;6.610;2022-12-08T01:04:18;28.47;;;17.30;;
4704;SDS011;2366;51.332;6.610;2022-12-08T01:06:44;36.03;;;17.23;;
4704;SDS011;2366;51.332;6.610;2022-12-08T01:09:10;26.38;;;16.73;;
4704;SDS011;2366;51.332;6.610;2022-12-08T01:11:37;25.52;;;16.50;;
4704;SDS011;2366;51.332;6.610;2022-12-08T01:14:03;21.23;;;15.73;;
4704;SDS011;2366;51.332;6.610;2022-12-08T01:16:29;23.70;;;16.93;;
4704;SDS011;2366;51.332;6.610;2022-12-08T01:18:57;22.00;;;15.57;;
4704;SDS011;2366;51.332;6.610;2022-12-08T01:21:23;27.48;;;16.23;;
4704;SDS011;2366;51.332;6.610;2022-12-08T01:23:49;25.30;;;16.75;;
4704;SDS011;2366;51.332;6.610;2022-12-08T01:26:15;21.40;;;15.73;;
4704;SDS011;2366;51.332;6.610;2022-12-08T01:28:43;25.58;;;15.57;;
4704;SDS011;2366;51.332;6.610;2022-12-08T01:31:18;25.58;;;17.55;;
4704;SDS011;2366;51.332;6.610;2022-12-08T01:33:45;23.35;;;16.58;;
4704;SDS011;2366;51.332;6.610;2022-12-08T01:36:25;25.95;;;17.58;;
4704;SDS011;2366;51.332;6.610;2022-12-08T01:38:58;25.70;;;18.00;;
4704;SDS011;2366;51.332;6.610;2022-12-08T01:41:26;26.00;;;18.60;;
4704;SDS011;2366;51.332;6.610;2022-12-08T01:46:38;36.78;;;18.08;;
4704;SDS011;2366;51.332;6.610;2022-12-08T01:54:27;25.95;;;18.02;;
4704;SDS011;2366;51.332;6.610;2022-12-08T01:59:27;28.50;;;18.13;;
4704;SDS011;2366;51.332;6.610;2022-12-08T02:01:54;32.88;;;19.65;;
4704;SDS011;2366;51.332;6.610;2022-12-08T02:04:20;31.10;;;18.75;;
4704;SDS011;2366;51.332;6.610;2022-12-08T02:06:45;30.90;;;19.87;;
4704;SDS011;2366;51.332;6.610;2022-12-08T02:09:13;42.08;;;23.73;;
4704;SDS011;2366;51.332;6.610;2022-12-08T02:11:39;31.30;;;18.80;;
4704;SDS011;2366;51.332;6.610;2022-12-08T02:14:05;32.67;;;21.97;;
4704;SDS011;2366;51.332;6.610;2022-12-08T02:22:27;34.33;;;20.90;;
4704;SDS011;2366;51.332;6.610;2022-12-08T02:36:15;32.25;;;20.05;;
4704;SDS011;2366;51.332;6.610;2022-12-08T02:39:15;23.30;;;15.90;;
4704;SDS011;2366;51.332;6.610;2022-12-08T02:42:08;31.50;;;18.02;;
4704;SDS011;2366;51.332;6.610;2022-12-08T02:44:42;25.23;;;16.20;;
4704;SDS011;2366;51.332;6.610;2022-12-08T02:47:17;23.35;;;16.85;;
4704;SDS011;2366;51.332;6.610;2022-12-08T02:49:44;24.52;;;17.52;;
4704;SDS011;2366;51.332;6.610;2022-12-08T02:54:38;28.65;;;18.33;;
4704;SDS011;2366;51.332;6.610;2022-12-08T02:57:11;24.30;;;18.27;;
4704;SDS011;2366;51.332;6.610;2022-12-08T03:00:11;29.98;;;19.42;;
4704;SDS011;2366;51.332;6.610;2022-12-08T03:07:54;30.75;;;19.60;;
4704;SDS011;2366;51.332;6.610;2022-12-08T03:10:26;31.25;;;17.90;;
4704;SDS011;2366;51.332;6.610;2022-12-08T03:13:00;31.83;;;20.92;;
4704;SDS011;2366;51.332;6.610;2022-12-08T03:15:32;28.50;;;18.50;;
4704;SDS011;2366;51.332;6.610;2022-12-08T03:18:01;31.38;;;19.02;;
4704;SDS011;2366;51.332;6.610;2022-12-08T03:20:29;23.33;;;16.73;;
4704;SDS011;2366;51.332;6.610;2022-12-08T03:22:57;30.33;;;19.55;;
4704;SDS011;2366;51.332;6.610;2022-12-08T03:25:26;30.02;;;18.35;;
4704;SDS011;2366;51.332;6.610;2022-12-08T03:27:56;25.05;;;16.90;;
4704;SDS011;2366;51.332;6.610;2022-12-08T03:30:22;28.63;;;17.67;;
4704;SDS011;2366;51.332;6.610;2022-12-08T03:32:55;23.97;;;17.10;;
4704;SDS011;2366;51.332;6.610;2022-12-08T03:35:29;27.20;;;17.65;;
4704;SDS011;2366;51.332;6.610;2022-12-08T03:38:07;19.77;;;15.20;;
4704;SDS011;2366;51.332;6.610;2022-12-08T03:40:35;25.20;;;14.70;;
4704;SDS011;2366;51.332;6.610;2022-12-08T03:43:01;19.85;;;13.80;;
4704;SDS011;2366;51.332;6.610;2022-12-08T03:45:26;19.10;;;13.77;;
4704;SDS011;2366;51.332;6.610;2022-12-08T03:47:52;16.20;;;12.90;;
4704;SDS011;2366;51.332;6.610;2022-12-08T03:50:17;21.93;;;13.03;;
4704;SDS011;2366;51.332;6.610;2022-12-08T03:52:42;30.30;;;15.10;;
4704;SDS011;2366;51.332;6.610;2022-12-08T03:55:08;16.33;;;12.57;;
4704;SDS011;2366;51.332;6.610;2022-12-08T03:57:33;19.27;;;13.70;;
4704;SDS011;2366;51.332;6.610;2022-12-08T03:59:59;17.53;;;11.80;;
4704;SDS011;2366;51.332;6.610;2022-12-08T04:02:24;18.87;;;12.03;;
4704;SDS011;2366;51.332;6.610;2022-12-08T04:04:49;14.77;;;13.10;;
4704;SDS011;2366;51.332;6.610;2022-12-08T04:07:15;17.50;;;13.53;;
4704;SDS011;2366;51.332;6.610;2022-12-08T04:09:40;22.17;;;13.43;;
4704;SDS011;2366;51.332;6.610;2022-12-08T04:12:06;20.50;;;13.63;;
4704;SDS011;2366;51.332;6.610;2022-12-08T04:14:32;22.05;;;14.75;;
4704;SDS011;2366;51.332;6.610;2022-12-08T04:16:57;19.07;;;13.57;;
4704;SDS011;2366;51.332;6.610;2022-12-08T04:19:23;20.57;;;13.40;;
4704;SDS011;2366;51.332;6.610;2022-12-08T04:21:48;17.10;;;11.43;;
4704;SDS011;2366;51.332;6.610;2022-12-08T04:24:13;18.27;;;13.63;;
4704;SDS011;2366;51.332;6.610;2022-12-08T04:26:39;17.73;;;12.10;;
4704;SDS011;2366;51.332;6.610;2022-12-08T04:29:04;15.77;;;12.20;;
4704;SDS011;2366;51.332;6.610;2022-12-08T04:31:30;18.03;;;11.93;;
4704;SDS011;2366;51.332;6.610;2022-12-08T04:33:55;19.60;;;14.83;;
4704;SDS011;2366;51.332;6.610;2022-12-08T04:36:20;18.30;;;12.93;;
4704;SDS011;2366;51.332;6.610;2022-12-08T04:38:46;20.23;;;13.53;;
4704;SDS011;2366;51.332;6.610;2022-12-08T04:41:11;21.83;;;14.40;;
4704;SDS011;2366;51.332;6.610;2022-12-08T04:43:36;18.73;;;13.67;;
4704;SDS011;2366;51.332;6.610;2022-12-08T04:46:04;20.83;;;14.23;;
4704;SDS011;2366;51.332;6.610;2022-12-08T04:48:31;20.02;;;14.15;;
4704;SDS011;2366;51.332;6.610;2022-12-08T04:50:56;24.53;;;14.03;;
4704;SDS011;2366;51.332;6.610;2022-12-08T04:53:22;20.43;;;14.03;;
4704;SDS011;2366;51.332;6.610;2022-12-08T04:55:47;17.50;;;14.73;;
4704;SDS011;2366;51.332;6.610;2022-12-08T04:58:14;19.15;;;13.98;;
4704;SDS011;2366;51.332;6.610;2022-12-08T05:00:41;21.38;;;16.15;;
4704;SDS011;2366;51.332;6.610;2022-12-08T05:03:07;22.25;;;14.27;;
4704;SDS011;2366;51.332;6.610;2022-12-08T05:05:33;27.00;;;17.37;;
4704;SDS011;2366;51.332;6.610;2022-12-08T05:07:58;23.47;;;15.53;;
4704;SDS011;2366;51.332;6.610;2022-12-08T05:10:23;26.00;;;17.23;;
4704;SDS011;2366;51.332;6.610;2022-12-08T05:12:49;23.50;;;15.47;;
4704;SDS011;2366;51.332;6.610;2022-12-08T05:15:14;22.33;;;16.20;;
4704;SDS011;2366;51.332;6.610;2022-12-08T05:17:40;20.53;;;14.87;;
4704;SDS011;2366;51.332;6.610;2022-12-08T05:20:05;23.50;;;17.23;;
4704;SDS011;2366;51.332;6.610;2022-12-08T05:22:31;27.00;;;16.90;;
4704;SDS011;2366;51.332;6.610;2022-12-08T05:24:57;26.83;;;17.27;;
4704;SDS011;2366;51.332;6.610;2022-12-08T05:27:22;23.93;;;17.00;;
4704;SDS011;2366;51.332;6.610;2022-12-08T05:29:47;26.97;;;18.00;;
4704;SDS011;2366;51.332;6.610;2022-12-08T05:32:14;26.73;;;16.75;;
4704;SDS011;2366;51.332;6.610;2022-12-08T05:34:40;22.83;;;17.13;;
4704;SDS011;2366;51.332;6.610;2022-12-08T05:37:05;25.40;;;18.43;;
4704;SDS011;2366;51.332;6.610;2022-12-08T05:39:30;24.40;;;16.23;;
4704;SDS011;2366;51.332;6.610;2022-12-08T05:41:56;27.87;;;17.67;;
4704;SDS011;2366;51.332;6.610;2022-12-08T05:44:21;25.80;;;18.10;;
4704;SDS011;2366;51.332;6.610;2022-12-08T05:46:47;28.60;;;17.97;;
4704;SDS011;2366;51.332;6.610;2022-12-08T05:49:12;28.77;;;19.70;;
4704;SDS011;2366;51.332;6.610;2022-12-08T05:51:38;33.33;;;19.80;;
4704;SDS011;2366;51.332;6.610;2022-12-08T05:54:03;31.73;;;21.20;;
4704;SDS011;2366;51.332;6.610;2022-12-08T05:56:28;31.10;;;19.33;;
4704;SDS011;2366;51.332;6.610;2022-12-08T05:58:54;35.93;;;21.50;;
4704;SDS011;2366;51.332;6.610;2022-12-08T06:03:50;36.72;;;19.23;;
4704;SDS011;2366;51.332;6.610;2022-12-08T06:06:16;33.05;;;19.80;;
4704;SDS011;2366;51.332;6.610;2022-12-08T06:08:41;31.03;;;20.97;;
4704;SDS011;2366;51.332;6.610;2022-12-08T06:11:07;32.53;;;20.80;;
4704;SDS011;2366;51.332;6.610;2022-12-08T06:13:32;32.07;;;19.23;;
4704;SDS011;2366;51.332;6.610;2022-12-08T06:16:07;36.73;;;19.27;;
4704;SDS011;2366;51.332;6.610;2022-12-08T06:18:32;37.60;;;20.60;;
4704;SDS011;2366;51.332;6.610;2022-12-08T06:21:01;33.90;;;21.20;;
4704;SDS011;2366;51.332;6.610;2022-12-08T06:23:37;27.98;;;17.88;;
4704;SDS011;2366;51.332;6.610;2022-12-08T06:26:07;33.73;;;19.23;;
4704;SDS011;2366;51.332;6.610;2022-12-08T06:28:35;31.20;;;19.27;;
4704;SDS011;2366;51.332;6.610;2022-12-08T06:31:05;28.55;;;18.30;;
4704;SDS011;2366;51.332;6.610;2022-12-08T06:33:41;30.52;;;18.50;;
4704;SDS011;2366;51.332;6.610;2022-12-08T06:36:07;26.88;;;17.70;;
4704;SDS011;2366;51.332;6.610;2022-12-08T06:38:32;32.27;;;20.17;;
4704;SDS011;2366;51.332;6.610;2022-12-08T06:40:58;32.57;;;18.10;;
4704;SDS011;2366;51.332;6.610;2022-12-08T06:43:24;26.90;;;17.10;;
4704;SDS011;2366;51.332;6.610;2022-12-08T06:45:50;33.30;;;17.15;;
4704;SDS011;2366;51.332;6.610;2022-12-08T06:48:16;26.33;;;16.13;;
4704;SDS011;2366;51.332;6.610;2022-12-08T06:50:42;23.30;;;15.95;;
4704;SDS011;2366;51.332;6.610;2022-12-08T06:53:09;23.67;;;16.80;;
4704;SDS011;2366;51.332;6.610;2022-12-08T06:55:35;24.90;;;15.68;;
4704;SDS011;2366;51.332;6.610;2022-12-08T06:58:01;26.50;;;17.33;;
4704;SDS011;2366;51.332;6.610;2022-12-08T07:00:26;28.30;;;16.97;;
4704;SDS011;2366;51.332;6.610;2022-12-08T07:02:51;28.00;;;17.70;;
4704;SDS011;2366;51.332;6.610;2022-12-08T07:05:17;28.63;;;16.77;;
4704;SDS011;2366;51.332;6.610;2022-12-08T07:07:42;24.27;;;16.03;;
4704;SDS011;2366;51.332;6.610;2022-12-08T07:10:07;26.20;;;17.40;;
4704;SDS011;2366;51.332;6.610;2022-12-08T07:12:33;22.83;;;17.37;;
4704;SDS011;2366;51.332;6.610;2022-12-08T07:14:58;19.50;;;13.67;;
4704;SDS011;2366;51.332;6.610;2022-12-08T07:17:24;19.03;;;13.60;;
4704;SDS011;2366;51.332;6.610;2022-12-08T07:19:49;21.23;;;14.50;;
4704;SDS011;2366;51.332;6.610;2022-12-08T07:22:14;22.83;;;13.87;;
4704;SDS011;2366;51.332;6.610;2022-12-08T07:24:40;24.80;;;15.40;;
4704;SDS011;2366;51.332;6.610;2022-12-08T07:27:05;27.40;;;16.63;;
4704;SDS011;2366;51.332;6.610;2022-12-08T07:29:30;22.77;;;16.70;;
4704;SDS011;2366;51.332;6.610;2022-12-08T07:31:56;23.87;;;15.13;;
4704;SDS011;2366;51.332;6.610;2022-12-08T07:34:21;20.03;;;14.10;;
4704;SDS011;2366;51.332;6.610;2022-12-08T07:36:46;19.80;;;15.10;;
4704;SDS011;2366;51.332;6.610;2022-12-08T07:39:12;23.67;;;15.70;;
4704;SDS011;2366;51.332;6.610;2022-12-08T07:41:37;19.90;;;14.33;;
4704;SDS011;2366;51.332;6.610;2022-12-08T07:44:02;20.83;;;15.57;;
4704;SDS011;2366;51.332;6.610;2022-12-08T07:46:28;23.93;;;14.67;;
4704;SDS011;2366;51.332;6.610;2022-12-08T07:48:54;20.60;;;14.30;;
4704;SDS011;2366;51.332;6.610;2022-12-08T07:51:19;18.33;;;14.00;;
4704;SDS011;2366;51.332;6.610;2022-12-08T07:53:46;18.47;;;13.50;;
4704;SDS011;2366;51.332;6.610;2022-12-08T07:56:12;17.27;;;12.52;;
4704;SDS011;2366;51.332;6.610;2022-12-08T07:58:39;21.77;;;13.65;;
4704;SDS011;2366;51.332;6.610;2022-12-08T08:01:04;24.53;;;13.50;;
4704;SDS011;2366;51.332;6.610;2022-12-08T08:03:30;16.00;;;12.57;;
4704;SDS011;2366;51.332;6.610;2022-12-08T08:06:02;19.73;;;12.53;;
4704;SDS011;2366;51.332;6.610;2022-12-08T08:08:28;21.30;;;13.20;;
4704;SDS011;2366;51.332;6.610;2022-12-08T08:10:54;21.03;;;14.33;;
4704;SDS011;2366;51.332;6.610;2022-12-08T08:13:19;17.70;;;13.00;;
4704;SDS011;2366;51.332;6.610;2022-12-08T08:15:45;20.40;;;13.60;;
4704;SDS011;2366;51.332;6.610;2022-12-08T08:18:10;21.80;;;13.63;;
4704;SDS011;2366;51.332;6.610;2022-12-08T08:20:36;21.48;;;14.45;;
4704;SDS011;2366;51.332;6.610;2022-12-08T08:23:01;22.13;;;14.07;;
4704;SDS011;2366;51.332;6.610;2022-12-08T08:25:27;22.13;;;14.23;;
4704;SDS011;2366;51.332;6.610;2022-12-08T08:27:52;29.77;;;13.10;;
4704;SDS011;2366;51.332;6.610;2022-12-08T08:30:18;20.15;;;13.13;;
4704;SDS011;2366;51.332;6.610;2022-12-08T08:32:44;21.33;;;14.97;;
4704;SDS011;2366;51.332;6.610;2022-12-08T08:35:09;21.20;;;15.20;;
4704;SDS011;2366;51.332;6.610;2022-12-08T08:37:35;26.50;;;15.97;;
4704;SDS011;2366;51.332;6.610;2022-12-08T08:40:00;23.50;;;14.53;;
4704;SDS011;2366;51.332;6.610;2022-12-08T08:42:26;28.53;;;18.20;;
4704;SDS011;2366;51.332;6.610;2022-12-08T08:44:51;25.00;;;17.60;;
4704;SDS011;2366;51.332;6.610;2022-12-08T08:47:17;27.40;;;18.63;;
4704;SDS011;2366;51.332;6.610;2022-12-08T08:49:42;25.57;;;17.43;;
4704;SDS011;2366;51.332;6.610;2022-12-08T08:52:08;30.77;;;20.70;;
4704;SDS011;2366;51.332;6.610;2022-12-08T08:54:33;38.10;;;21.20;;
4704;SDS011;2366;51.332;6.610;2022-12-08T08:56:59;36.03;;;21.10;;
4704;SDS011;2366;51.332;6.610;2022-12-08T08:59:25;34.38;;;21.77;;
4704;SDS011;2366;51.332;6.610;2022-12-08T09:01:52;36.28;;;22.23;;
4704;SDS011;2366;51.332;6.610;2022-12-08T09:04:19;39.47;;;23.90;;
4704;SDS011;2366;51.332;6.610;2022-12-08T09:06:46;35.05;;;21.52;;
4704;SDS011;2366;51.332;6.610;2022-12-08T09:09:12;37.00;;;21.70;;
4704;SDS011;2366;51.332;6.610;2022-12-08T09:11:37;38.60;;;21.93;;
4704;SDS011;2366;51.332;6.610;2022-12-08T09:14:03;38.40;;;22.33;;
4704;SDS011;2366;51.332;6.610;2022-12-08T09:16:28;35.37;;;22.47;;
4704;SDS011;2366;51.332;6.610;2022-12-08T09:18:54;38.87;;;22.60;;
4704;SDS011;2366;51.332;6.610;2022-12-08T09:21:21;57.15;;;21.38;;
4704;SDS011;2366;51.332;6.610;2022-12-08T09:23:49;31.15;;;20.58;;
4704;SDS011;2366;51.332;6.610;2022-12-08T09:26:16;31.45;;;18.92;;
4704;SDS011;2366;51.332;6.610;2022-12-08T09:28:42;37.13;;;18.90;;
4704;SDS011;2366;51.332;6.610;2022-12-08T09:31:11;39.65;;;18.95;;
4704;SDS011;2366;51.332;6.610;2022-12-08T09:33:37;30.98;;;18.38;;
4704;SDS011;2366;51.332;6.610;2022-12-08T09:36:03;29.03;;;17.90;;
4704;SDS011;2366;51.332;6.610;2022-12-08T09:38:28;26.20;;;17.83;;
4704;SDS011;2366;51.332;6.610;2022-12-08T09:40:54;28.83;;;19.53;;
4704;SDS011;2366;51.332;6.610;2022-12-08T09:46:00;28.85;;;17.40;;
4704;SDS011;2366;51.332;6.610;2022-12-08T09:48:32;32.45;;;18.77;;
4704;SDS011;2366;51.332;6.610;2022-12-08T09:51:00;29.02;;;17.70;;
4704;SDS011;2366;51.332;6.610;2022-12-08T09:53:38;32.90;;;18.30;;
4704;SDS011;2366;51.332;6.610;2022-12-08T09:56:17;29.98;;;18.33;;
4704;SDS011;2366;51.332;6.610;2022-12-08T10:01:16;25.23;;;17.27;;
4704;SDS011;2366;51.332;6.610;2022-12-08T10:03:43;26.23;;;17.52;;
4704;SDS011;2366;51.332;6.610;2022-12-08T10:11:34;28.50;;;17.90;;
4704;SDS011;2366;51.332;6.610;2022-12-08T10:14:11;27.30;;;17.58;;
4704;SDS011;2366;51.332;6.610;2022-12-08T10:16:51;28.33;;;18.02;;
4704;SDS011;2366;51.332;6.610;2022-12-08T10:19:22;33.55;;;17.17;;
4704;SDS011;2366;51.332;6.610;2022-12-08T10:21:50;27.38;;;17.73;;
4704;SDS011;2366;51.332;6.610;2022-12-08T10:24:20;29.48;;;18.45;;
4704;SDS011;2366;51.332;6.610;2022-12-08T10:26:48;30.80;;;18.50;;
4704;SDS011;2366;51.332;6.610;2022-12-08T10:29:14;27.27;;;17.20;;
4704;SDS011;2366;51.332;6.610;2022-12-08T10:31:39;28.53;;;17.63;;
4704;SDS011;2366;51.332;6.610;2022-12-08T10:34:23;25.67;;;16.97;;
4704;SDS011;2366;51.332;6.610;2022-12-08T10:36:51;23.50;;;16.23;;
4704;SDS011;2366;51.332;6.610;2022-12-08T10:39:31;20.70;;;15.38;;
4704;SDS011;2366;51.332;6.610;2022-12-08T10:42:01;28.90;;;16.17;;
4704;SDS011;2366;51.332;6.610;2022-12-08T10:44:30;34.13;;;17.55;;
4704;SDS011;2366;51.332;6.610;2022-12-08T10:46:55;28.43;;;17.03;;
4704;SDS011;2366;51.332;6.610;2022-12-08T10:49:25;27.90;;;16.60;;
4704;SDS011;2366;51.332;6.610;2022-12-08T10:51:53;26.58;;;16.35;;
4704;SDS011;2366;51.332;6.610;2022-12-08T10:54:29;23.87;;;16.13;;
4704;SDS011;2366;51.332;6.610;2022-12-08T10:56:59;28.15;;;16.48;;
4704;SDS011;2366;51.332;6.610;2022-12-08T10:59:25;21.33;;;15.70;;
4704;SDS011;2366;51.332;6.610;2022-12-08T11:01:51;20.90;;;15.90;;
4704;SDS011;2366;51.332;6.610;2022-12-08T11:04:22;24.85;;;15.15;;
4704;SDS011;2366;51.332;6.610;2022-12-08T11:06:50;39.63;;;15.30;;
4704;SDS011;2366;51.332;6.610;2022-12-08T11:17:23;22.60;;;16.25;;
4704;SDS011;2366;51.332;6.610;2022-12-08T11:22:35;24.42;;;15.73;;
4704;SDS011;2366;51.332;6.610;2022-12-08T11:25:18;28.10;;;15.38;;
4704;SDS011;2366;51.332;6.610;2022-12-08T11:27:47;27.67;;;16.80;;
4704;SDS011;2366;51.332;6.610;2022-12-08T11:30:15;25.75;;;15.20;;
4704;SDS011;2366;51.332;6.610;2022-12-08T11:32:47;27.65;;;16.20;;
4704;SDS011;2366;51.332;6.610;2022-12-08T11:37:47;24.25;;;15.13;;
4704;SDS011;2366;51.332;6.610;2022-12-08T11:40:20;25.53;;;14.50;;
4704;SDS011;2366;51.332;6.610;2022-12-08T11:42:50;41.00;;;15.63;;
4704;SDS011;2366;51.332;6.610;2022-12-08T11:45:25;27.00;;;15.23;;
4704;SDS011;2366;51.332;6.610;2022-12-08T11:53:56;26.95;;;15.50;;
4704;SDS011;2366;51.332;6.610;2022-12-08T11:56:00;22.48;;;15.98;;
4704;SDS011;2366;51.332;6.610;2022-12-08T11:58:37;24.80;;;16.05;;
4704;SDS011;2366;51.332;6.610;2022-12-08T12:01:22;19.45;;;15.25;;
4704;SDS011;2366;51.332;6.610;2022-12-08T12:09:18;27.40;;;15.10;;
4704;SDS011;2366;51.332;6.610;2022-12-08T12:14:51;25.35;;;16.38;;
4704;SDS011;2366;51.332;6.610;2022-12-08T12:17:49;22.80;;;13.13;;
4704;SDS011;2366;51.332;6.610;2022-12-08T12:20:29;24.92;;;14.40;;
4704;SDS011;2366;51.332;6.610;2022-12-08T12:23:03;24.10;;;15.25;;
4704;SDS011;2366;51.332;6.610;2022-12-08T12:25:35;24.42;;;14.45;;
4704;SDS011;2366;51.332;6.610;2022-12-08T12:28:03;20.42;;;13.23;;
4704;SDS011;2366;51.332;6.610;2022-12-08T12:33:30;18.40;;;13.00;;
4704;SDS011;2366;51.332;6.610;2022-12-08T12:36:00;17.55;;;11.02;;
4704;SDS011;2366;51.332;6.610;2022-12-08T12:38:31;18.27;;;12.05;;
4704;SDS011;2366;51.332;6.610;2022-12-08T12:41:23;25.10;;;12.60;;
4704;SDS011;2366;51.332;6.610;2022-12-08T12:44:08;19.33;;;14.15;;
4704;SDS011;2366;51.332;6.610;2022-12-08T12:54:33;18.35;;;13.73;;
4704;SDS011;2366;51.332;6.610;2022-12-08T13:04:52;22.45;;;15.45;;
4704;SDS011;2366;51.332;6.610;2022-12-08T13:07:24;15.60;;;13.55;;
4704;SDS011;2366;51.332;6.610;2022-12-08T13:12:39;19.55;;;12.77;;
4704;SDS011;2366;51.332;6.610;2022-12-08T13:15:13;18.63;;;13.48;;
4704;SDS011;2366;51.332;6.610;2022-12-08T13:17:43;17.50;;;13.15;;
4704;SDS011;2366;51.332;6.610;2022-12-08T13:20:21;22.08;;;13.18;;
4704;SDS011;2366;51.332;6.610;2022-12-08T13:23:01;23.58;;;12.65;;
4704;SDS011;2366;51.332;6.610;2022-12-08T13:30:48;21.08;;;12.07;;
4704;SDS011;2366;51.332;6.610;2022-12-08T13:35:55;18.88;;;11.70;;
4704;SDS011;2366;51.332;6.610;2022-12-08T13:38:29;20.73;;;13.43;;
4704;SDS011;2366;51.332;6.610;2022-12-08T13:41:00;19.90;;;12.50;;
4704;SDS011;2366;51.332;6.610;2022-12-08T13:43:36;17.50;;;11.48;;
4704;SDS011;2366;51.332;6.610;2022-12-08T13:46:07;18.88;;;10.55;;
4704;SDS011;2366;51.332;6.610;2022-12-08T13:48:51;18.67;;;11.93;;
4704;SDS011;2366;51.332;6.610;2022-12-08T13:51:25;31.33;;;13.20;;
4704;SDS011;2366;51.332;6.610;2022-12-08T13:53:59;18.92;;;11.20;;
4704;SDS011;2366;51.332;6.610;2022-12-08T13:56:30;20.70;;;10.45;;
4704;SDS011;2366;51.332;6.610;2022-12-08T14:01:44;25.63;;;11.55;;
4704;SDS011;2366;51.332;6.610;2022-12-08T14:04:16;16.67;;;11.02;;
4704;SDS011;2366;51.332;6.610;2022-12-08T14:06:44;31.92;;;14.55;;
4704;SDS011;2366;51.332;6.610;2022-12-08T14:09:13;21.10;;;10.93;;
4704;SDS011;2366;51.332;6.610;2022-12-08T14:11:51;16.85;;;11.55;;
4704;SDS011;2366;51.332;6.610;2022-12-08T14:14:35;17.00;;;12.13;;
4704;SDS011;2366;51.332;6.610;2022-12-08T14:17:14;20.92;;;13.10;;
4704;SDS011;2366;51.332;6.610;2022-12-08T14:19:43;18.85;;;10.98;;
4704;SDS011;2366;51.332;6.610;2022-12-08T14:22:16;15.65;;;10.07;;
4704;SDS011;2366;51.332;6.610;2022-12-08T14:24:45;23.38;;;11.05;;
4704;SDS011;2366;51.332;6.610;2022-12-08T14:27:16;18.63;;;11.75;;
4704;SDS011;2366;51.332;6.610;2022-12-08T14:29:51;18.08;;;10.70;;
4704;SDS011;2366;51.332;6.610;2022-12-08T14:32:29;16.83;;;10.35;;
4704;SDS011;2366;51.332;6.610;2022-12-08T14:37:31;18.52;;;9.80;;
4704;SDS011;2366;51.332;6.610;2022-12-08T14:40:47;14.63;;;10.77;;
4704;SDS011;2366;51.332;6.610;2022-12-08T14:56:06;20.55;;;9.80;;
4704;SDS011;2366;51.332;6.610;2022-12-08T14:59:11;12.15;;;9.02;;
4704;SDS011;2366;51.332;6.610;2022-12-08T15:01:40;18.13;;;9.88;;
4704;SDS011;2366;51.332;6.610;2022-12-08T15:04:08;10.60;;;9.20;;
4704;SDS011;2366;51.332;6.610;2022-12-08T15:11:59;19.33;;;10.05;;
4704;SDS011;2366;51.332;6.610;2022-12-08T15:14:27;27.30;;;13.90;;
4704;SDS011;2366;51.332;6.610;2022-12-08T15:16:57;19.75;;;11.05;;
4704;SDS011;2366;51.332;6.610;2022-12-08T15:19:29;25.40;;;14.30;;
4704;SDS011;2366;51.332;6.610;2022-12-08T15:21:58;20.70;;;11.77;;
4704;SDS011;2366;51.332;6.610;2022-12-08T15:24:37;18.20;;;10.65;;
4704;SDS011;2366;51.332;6.610;2022-12-08T15:27:02;15.57;;;10.50;;
4704;SDS011;2366;51.332;6.610;2022-12-08T15:29:28;16.67;;;10.53;;
4704;SDS011;2366;51.332;6.610;2022-12-08T15:31:58;17.20;;;9.90;;
4704;SDS011;2366;51.332;6.610;2022-12-08T15:34:25;18.90;;;10.35;;
4704;SDS011;2366;51.332;6.610;2022-12-08T15:36:51;16.43;;;11.10;;
4704;SDS011;2366;51.332;6.610;2022-12-08T15:39:19;14.60;;;10.05;;
4704;SDS011;2366;51.332;6.610;2022-12-08T15:41:55;15.80;;;11.25;;
4704;SDS011;2366;51.332;6.610;2022-12-08T15:44:21;17.37;;;11.00;;
4704;SDS011;2366;51.332;6.610;2022-12-08T15:46:47;17.23;;;10.33;;
4704;SDS011;2366;51.332;6.610;2022-12-08T15:49:18;16.65;;;11.25;;
4704;SDS011;2366;51.332;6.610;2022-12-08T15:51:44;14.23;;;10.57;;
4704;SDS011;2366;51.332;6.610;2022-12-08T15:54:10;16.73;;;9.50;;
4704;SDS011;2366;51.332;6.610;2022-12-08T15:56:38;15.50;;;11.03;;
4704;SDS011;2366;51.332;6.610;2022-12-08T15:59:10;17.42;;;11.20;;
4704;SDS011;2366;51.332;6.610;2022-12-08T16:01:40;16.77;;;10.80;;
4704;SDS011;2366;51.332;6.610;2022-12-08T16:04:06;14.50;;;11.47;;
4704;SDS011;2366;51.332;6.610;2022-12-08T16:06:31;16.58;;;12.38;;
4704;SDS011;2366;51.332;6.610;2022-12-08T16:08:57;19.00;;;11.50;;
4704;SDS011;2366;51.332;6.610;2022-12-08T16:11:22;15.90;;;11.70;;
4704;SDS011;2366;51.332;6.610;2022-12-08T16:14:06;18.60;;;11.88;;
4704;SDS011;2366;51.332;6.610;2022-12-08T16:16:32;16.93;;;11.33;;
4704;SDS011;2366;51.332;6.610;2022-12-08T16:18:57;21.07;;;12.27;;
4704;SDS011;2366;51.332;6.610;2022-12-08T16:21:22;17.17;;;11.63;;
4704;SDS011;2366;51.332;6.610;2022-12-08T16:23:49;15.40;;;10.77;;
4704;SDS011;2366;51.332;6.610;2022-12-08T16:26:16;27.73;;;13.40;;
4704;SDS011;2366;51.332;6.610;2022-12-08T16:28:44;16.73;;;11.82;;
4704;SDS011;2366;51.332;6.610;2022-12-08T16:31:11;25.43;;;14.37;;
4704;SDS011;2366;51.332;6.610;2022-12-08T16:33:37;25.80;;;13.10;;
4704;SDS011;2366;51.332;6.610;2022-12-08T16:36:03;26.00;;;13.20;;
4704;SDS011;2366;51.332;6.610;2022-12-08T16:38:28;26.10;;;13.17;;
4704;SDS011;2366;51.332;6.610;2022-12-08T16:40:53;18.57;;;12.30;;
4704;SDS011;2366;51.332;6.610;2022-12-08T16:43:37;24.30;;;12.95;;
4704;SDS011;2366;51.332;6.610;2022-12-08T16:46:03;21.83;;;13.33;;
4704;SDS011;2366;51.332;6.610;2022-12-08T16:48:28;25.93;;;15.03;;
4704;SDS011;2366;51.332;6.610;2022-12-08T16:50:54;25.87;;;13.87;;
4704;SDS011;2366;51.332;6.610;2022-12-08T16:53:20;21.90;;;14.13;;
4704;SDS011;2366;51.332;6.610;2022-12-08T16:55:46;17.80;;;13.10;;
4704;SDS011;2366;51.332;6.610;2022-12-08T16:58:12;19.42;;;13.50;;
4704;SDS011;2366;51.332;6.610;2022-12-08T17:00:38;19.38;;;12.40;;
4704;SDS011;2366;51.332;6.610;2022-12-08T17:03:04;19.45;;;10.93;;
4704;SDS011;2366;51.332;6.610;2022-12-08T17:05:32;15.63;;;11.98;;